»·PEaware :: N5522X KBFL-KMHV

N5522X :: KBFL-KMHV

FLIGHT INFORMATION

Flight Status: Arrived
Operator: Privately registered:
United States
More flights under this callsign
Pilot: Daniel K. (45141)
Aircraft: CESSNA 172 SKYHAWK
(C172)
More flights by this aircraft type
Origin: KBFL Meadows
United States
Destination: KMHV Mojave
United States
More flights between these airports :: More routes between these airports
Route:
File this flight plan on PilotEdge
Remarks:
Altitude:
(Current/Filed)
7,500ft
Speed:
(Current/Filed)
110kts
Departed: 10-Nov-23 08:37 AM
Arrived: 10-Nov-23 09:09 AM
Distance/Time
Traveled:
49nm/0:31
Distance/Time
To Go:
Arrived

Flight Plot

Page will automatically refresh every two minutes.


Map Options




Map Legend


Flown Route
Filed Route
Departure Airport
Arrival Airport
Navaid (VOR, NDB)
Fix

Horizontal Profiles

Position Reports

Time Latitude Longitude Heading Altitude Ground
Speed
10-Nov-23 08:18 35.429658 -119.046616 136 495ft 0kts
10-Nov-23 08:19 35.429658 -119.046616 136 495ft 0kts
10-Nov-23 08:20 35.429658 -119.046616 136 495ft 0kts
10-Nov-23 08:21 35.429658 -119.046616 136 495ft 0kts
10-Nov-23 08:22 35.429658 -119.046616 136 495ft 0kts
10-Nov-23 08:23 35.429658 -119.046616 136 495ft 0kts
10-Nov-23 08:24 35.429658 -119.046616 136 495ft 0kts
10-Nov-23 08:25 35.429658 -119.046616 136 495ft 0kts
10-Nov-23 08:26 35.429658 -119.046616 136 495ft 0kts
10-Nov-23 08:27 35.429658 -119.046616 136 495ft 0kts
10-Nov-23 08:28 35.429658 -119.046616 136 495ft 0kts
10-Nov-23 08:29 35.428827 -119.046809 223 491ft 0kts
10-Nov-23 08:30 35.427703 -119.046522 135 486ft 12kts
10-Nov-23 08:31 35.425689 -119.044723 256 479ft 0kts
10-Nov-23 08:32 35.425689 -119.044723 256 479ft 0kts
10-Nov-23 08:33 35.425689 -119.044723 256 479ft 0kts
10-Nov-23 08:34 35.425689 -119.044723 256 479ft 0kts
10-Nov-23 08:35 35.425314 -119.045792 258 476ft 7kts
10-Nov-23 08:36 35.436791 -119.060354 320 882ft 91kts
10-Nov-23 08:37 35.455923 -119.060516 94 1598ft 91kts
10-Nov-23 08:38 35.438472 -119.034700 123 2147ft 97kts
10-Nov-23 08:39 35.425984 -119.007209 112 2839ft 82kts
10-Nov-23 08:40 35.414897 -118.982461 114 3416ft 90kts
10-Nov-23 08:41 35.402068 -118.954569 115 3905ft 96kts
10-Nov-23 08:42 35.388897 -118.925742 115 4388ft 97kts
10-Nov-23 08:43 35.375735 -118.896918 115 4867ft 96kts
10-Nov-23 08:44 35.362544 -118.868294 114 5346ft 96kts
10-Nov-23 08:45 35.349527 -118.839941 114 5824ft 95kts
10-Nov-23 08:46 35.336673 -118.811843 114 6302ft 93kts
10-Nov-23 08:47 35.324052 -118.784252 114 6777ft 92kts
10-Nov-23 08:48 35.311636 -118.757144 114 7249ft 90kts
10-Nov-23 08:49 35.300595 -118.727752 111 7476ft 109kts
10-Nov-23 08:50 35.287875 -118.692405 111 7470ft 115kts
10-Nov-23 08:51 35.273981 -118.656437 114 7470ft 117kts
10-Nov-23 08:52 35.259715 -118.621514 114 7469ft 112kts
10-Nov-23 08:53 35.245844 -118.587563 114 7470ft 111kts
10-Nov-23 08:54 35.232029 -118.553693 114 7470ft 111kts
10-Nov-23 08:55 35.218124 -118.519563 114 7470ft 111kts
10-Nov-23 08:56 35.203254 -118.486523 127 7467ft 111kts
10-Nov-23 08:57 35.182982 -118.457795 129 7470ft 111kts
10-Nov-23 08:58 35.162515 -118.429003 129 7470ft 111kts
10-Nov-23 08:59 35.142273 -118.400440 129 7469ft 111kts
10-Nov-23 09:00 35.122026 -118.371831 128 7471ft 111kts
10-Nov-23 09:01 35.103768 -118.339868 121 7292ft 118kts
10-Nov-23 09:02 35.084820 -118.306928 123 6470ft 120kts
10-Nov-23 09:03 35.071086 -118.273633 109 5697ft 104kts
10-Nov-23 09:04 35.061223 -118.239925 105 4662ft 89kts
10-Nov-23 09:05 35.059087 -118.211890 86 3694ft 76kts
10-Nov-23 09:06 35.059200 -118.186983 89 3167ft 71kts
10-Nov-23 09:07 35.059212 -118.163586 90 2775ft 60kts
10-Nov-23 09:08 35.057284 -118.158464 262 2764ft 0kts

Navigation Log

Ident Type
Flight plan parsing failed, navigation log unavailable